createdAt,value
2022-07-29T00:01:48.287Z,18.05
2022-07-29T00:04:16.120Z,18.04
2022-07-29T00:06:43.827Z,18.03
2022-07-29T00:09:11.314Z,18.03
2022-07-29T00:11:39.095Z,18.02
2022-07-29T00:14:06.592Z,18.01
2022-07-29T00:16:34.383Z,18.00
2022-07-29T00:19:02.428Z,17.99
2022-07-29T00:21:30.456Z,18.01
2022-07-29T00:23:58.006Z,18.03
2022-07-29T00:26:26.146Z,18.06
2022-07-29T00:29:06.372Z,18.06
2022-07-29T00:31:41.085Z,18.08
2022-07-29T00:34:28.552Z,18.10
2022-07-29T00:36:56.140Z,18.11
2022-07-29T00:39:23.898Z,18.10
2022-07-29T00:41:51.606Z,18.09
2022-07-29T00:44:19.122Z,18.10
2022-07-29T00:46:46.685Z,18.08
2022-07-29T00:49:14.321Z,18.07
2022-07-29T00:51:42.133Z,18.06
2022-07-29T00:54:09.682Z,18.02
2022-07-29T00:56:37.272Z,17.94
2022-07-29T00:59:04.773Z,17.85
2022-07-29T01:01:32.404Z,17.76
2022-07-29T01:04:00.211Z,17.69
2022-07-29T01:06:28.058Z,17.65
2022-07-29T01:08:56.747Z,17.64
2022-07-29T01:11:24.976Z,17.62
2022-07-29T01:13:53.877Z,17.62
2022-07-29T01:16:36.542Z,17.58
2022-07-29T01:19:48.707Z,17.55
2022-07-29T01:22:26.869Z,17.39
2022-07-29T01:25:11.118Z,17.23
2022-07-29T01:28:04.481Z,17.05
2022-07-29T01:30:35.831Z,16.92
2022-07-29T01:33:10.986Z,16.88
2022-07-29T01:35:44.024Z,16.87
2022-07-29T01:38:20.881Z,16.82
2022-07-29T01:40:54.001Z,16.79
2022-07-29T01:43:31.783Z,16.76
2022-07-29T01:46:06.739Z,16.71
2022-07-29T01:48:49.767Z,16.70
2022-07-29T01:51:36.874Z,16.67
2022-07-29T01:54:14.317Z,16.64
2022-07-29T01:56:46.183Z,16.56
2022-07-29T01:59:13.834Z,16.50
2022-07-29T02:01:45.134Z,16.50
2022-07-29T02:04:29.513Z,16.42
2022-07-29T02:07:05.848Z,16.32
2022-07-29T02:09:38.789Z,16.19
2022-07-29T02:12:08.783Z,16.11
2022-07-29T02:14:43.148Z,16.07
2022-07-29T02:17:15.776Z,15.98
2022-07-29T02:19:47.105Z,15.85
2022-07-29T02:22:17.679Z,15.75
2022-07-29T02:24:47.242Z,15.64
2022-07-29T02:27:19.922Z,15.55
2022-07-29T02:29:51.303Z,15.45
2022-07-29T02:32:21.288Z,15.39
2022-07-29T02:34:50.755Z,15.33
2022-07-29T02:37:19.669Z,15.32
2022-07-29T02:39:54.797Z,15.34
2022-07-29T02:42:27.586Z,15.34
2022-07-29T02:44:55.946Z,15.29
2022-07-29T02:47:41.829Z,15.26
2022-07-29T02:50:22.106Z,15.20
2022-07-29T02:52:59.789Z,15.19
2022-07-29T02:55:41.229Z,15.16
2022-07-29T02:58:33.398Z,15.14
2022-07-29T03:01:09.815Z,15.08
2022-07-29T03:03:39.715Z,15.07
2022-07-29T03:06:30.930Z,15.06
2022-07-29T03:09:02.884Z,15.02
2022-07-29T03:11:49.293Z,15.01
2022-07-29T03:14:21.025Z,15.04
2022-07-29T03:16:50.459Z,15.05
2022-07-29T03:19:20.135Z,15.08
2022-07-29T03:21:48.482Z,15.10
2022-07-29T03:24:37.390Z,15.14
2022-07-29T03:27:06.256Z,15.12
2022-07-29T03:29:34.718Z,15.08
2022-07-29T03:32:09.152Z,15.05
2022-07-29T03:34:39.150Z,15.01
2022-07-29T03:37:08.213Z,15.01
2022-07-29T03:39:42.350Z,15.05
2022-07-29T03:42:15.820Z,15.05
2022-07-29T03:44:51.172Z,15.06
2022-07-29T03:47:47.972Z,15.08
2022-07-29T03:50:17.109Z,15.09
2022-07-29T03:52:45.431Z,15.03
2022-07-29T03:55:14.460Z,15.01
2022-07-29T03:57:43.719Z,15.01
2022-07-29T04:00:12.330Z,15.04
2022-07-29T04:02:47.922Z,15.06
2022-07-29T04:05:17.552Z,15.06
2022-07-29T04:07:49.246Z,15.02
2022-07-29T04:10:18.015Z,14.96
2022-07-29T04:12:57.735Z,14.96
2022-07-29T04:15:25.416Z,14.96
2022-07-29T04:17:52.969Z,14.96
2022-07-29T04:20:20.450Z,14.95
2022-07-29T04:22:47.904Z,14.96
2022-07-29T04:25:15.322Z,14.95
2022-07-29T04:28:01.084Z,14.93
2022-07-29T04:30:30.519Z,14.91
2022-07-29T04:32:58.156Z,14.89
2022-07-29T04:35:25.708Z,14.88
2022-07-29T04:37:53.438Z,14.91
2022-07-29T04:40:21.222Z,14.95
2022-07-29T04:42:49.469Z,14.98
2022-07-29T04:45:22.344Z,15.00
2022-07-29T04:47:50.991Z,14.98
2022-07-29T04:50:18.668Z,14.92
2022-07-29T04:52:46.206Z,14.88
2022-07-29T04:55:13.645Z,14.85
2022-07-29T04:57:41.432Z,14.80
2022-07-29T05:00:10.201Z,14.75
2022-07-29T05:02:37.770Z,14.73
2022-07-29T05:05:05.677Z,14.73
2022-07-29T05:07:33.474Z,14.74
2022-07-29T05:10:00.882Z,14.77
2022-07-29T05:12:31.035Z,14.80
2022-07-29T05:14:58.548Z,14.84
2022-07-29T05:17:28.131Z,14.91
2022-07-29T05:19:58.441Z,14.94
2022-07-29T05:22:25.967Z,14.96
2022-07-29T05:24:53.420Z,14.98
2022-07-29T05:27:20.948Z,15.00
2022-07-29T05:29:48.510Z,14.96
2022-07-29T05:32:16.139Z,14.96
2022-07-29T05:34:50.981Z,14.97
2022-07-29T05:37:20.884Z,15.01
2022-07-29T05:39:56.315Z,15.04
2022-07-29T05:42:26.568Z,15.07
2022-07-29T05:44:54.543Z,15.12
2022-07-29T05:47:23.119Z,15.14
2022-07-29T05:49:51.467Z,15.14
2022-07-29T05:52:19.191Z,15.13
2022-07-29T05:54:46.666Z,15.14
2022-07-29T05:57:19.355Z,15.19
2022-07-29T05:59:47.786Z,15.21
2022-07-29T06:02:15.498Z,15.24
2022-07-29T06:04:43.160Z,15.26
2022-07-29T06:07:12.222Z,15.27
2022-07-29T06:09:39.737Z,15.32
2022-07-29T06:12:07.411Z,15.35
2022-07-29T06:14:36.099Z,15.36
2022-07-29T06:17:03.615Z,15.37
2022-07-29T06:19:37.355Z,15.37
2022-07-29T06:22:05.664Z,15.36
2022-07-29T06:24:33.193Z,15.37
2022-07-29T06:27:00.646Z,15.37
2022-07-29T06:29:28.094Z,15.37
2022-07-29T06:31:56.448Z,15.36
2022-07-29T06:34:23.942Z,15.36
2022-07-29T06:36:52.152Z,15.37
2022-07-29T06:39:21.834Z,15.40
2022-07-29T06:41:51.509Z,15.43
2022-07-29T06:44:20.195Z,15.46
2022-07-29T06:47:12.486Z,15.50
2022-07-29T06:55:50.269Z,15.48
2022-07-29T06:58:18.968Z,15.48
2022-07-29T07:00:57.841Z,15.49
2022-07-29T07:03:25.952Z,15.50
2022-07-29T07:05:55.117Z,15.50
2022-07-29T07:08:24.631Z,15.49
2022-07-29T07:10:53.633Z,15.49
2022-07-29T07:13:21.165Z,15.52
2022-07-29T07:15:49.438Z,15.57
2022-07-29T07:18:17.874Z,15.61
2022-07-29T07:20:46.218Z,15.65
2022-07-29T07:23:13.838Z,15.65
2022-07-29T07:25:41.586Z,15.64
2022-07-29T07:28:09.297Z,15.67
2022-07-29T07:30:36.754Z,15.70
2022-07-29T07:33:04.392Z,15.76
2022-07-29T07:35:31.876Z,15.79
2022-07-29T07:37:59.706Z,15.85
2022-07-29T07:40:27.476Z,15.89
2022-07-29T07:42:55.047Z,15.93
2022-07-29T07:45:22.939Z,15.97
2022-07-29T07:47:50.602Z,16.01
2022-07-29T07:50:21.129Z,16.05
2022-07-29T07:52:58.543Z,16.14
2022-07-29T07:55:27.202Z,16.25
2022-07-29T07:57:56.032Z,16.32
2022-07-29T08:00:24.029Z,16.33
2022-07-29T08:02:51.809Z,16.35
2022-07-29T08:05:19.467Z,16.40
2022-07-29T08:07:48.308Z,16.47
2022-07-29T08:10:37.119Z,16.55
2022-07-29T08:13:07.156Z,16.61
2022-07-29T08:15:35.197Z,16.64
2022-07-29T08:18:08.627Z,16.69
2022-07-29T08:20:39.847Z,16.76
2022-07-29T08:23:09.679Z,16.86
2022-07-29T08:25:40.123Z,16.97
2022-07-29T08:28:08.432Z,17.11
2022-07-29T08:30:36.474Z,17.19
2022-07-29T08:33:04.458Z,17.29
2022-07-29T08:35:35.573Z,17.58
2022-07-29T08:38:04.409Z,17.96
2022-07-29T08:40:32.839Z,18.30
2022-07-29T08:43:09.279Z,18.62
2022-07-29T08:45:57.217Z,18.92
2022-07-29T08:48:25.794Z,19.14
2022-07-29T08:50:58.053Z,19.34
2022-07-29T08:53:29.422Z,19.47
2022-07-29T08:55:58.425Z,19.60
2022-07-29T08:58:28.275Z,19.79
2022-07-29T09:00:58.161Z,19.99
2022-07-29T09:03:31.572Z,20.15
2022-07-29T09:06:04.553Z,20.15
2022-07-29T09:08:33.783Z,20.12
2022-07-29T09:11:05.443Z,20.29
2022-07-29T09:13:33.446Z,20.42
2022-07-29T09:16:05.650Z,20.51
2022-07-29T09:18:44.662Z,20.52
2022-07-29T09:21:33.774Z,20.57
2022-07-29T09:24:05.369Z,20.62
2022-07-29T09:26:34.125Z,20.65
2022-07-29T09:29:10.938Z,20.80
2022-07-29T09:31:42.959Z,21.01
2022-07-29T09:34:12.299Z,21.17
2022-07-29T09:36:48.966Z,21.29
2022-07-29T09:39:30.454Z,21.40
2022-07-29T09:42:03.093Z,21.52
2022-07-29T09:44:50.057Z,21.65
2022-07-29T09:47:22.673Z,21.72
2022-07-29T09:50:00.328Z,21.86
2022-07-29T09:53:35.589Z,21.99
2022-07-29T09:56:04.918Z,22.06
2022-07-29T09:59:07.533Z,22.26
2022-07-29T10:01:55.583Z,22.41
2022-07-29T10:04:43.757Z,22.59
2022-07-29T10:07:11.603Z,22.69
2022-07-29T10:09:54.272Z,22.75
2022-07-29T10:12:22.274Z,22.75
2022-07-29T10:14:51.284Z,22.75
2022-07-29T10:17:20.204Z,22.85
2022-07-29T10:19:49.892Z,23.01
2022-07-29T10:22:43.337Z,23.10
2022-07-29T10:25:05.353Z,23.13
2022-07-29T10:27:33.432Z,23.22
2022-07-29T10:30:05.729Z,23.39
2022-07-29T10:32:44.898Z,23.55
2022-07-29T10:35:41.096Z,23.70
2022-07-29T10:38:53.815Z,23.87
2022-07-29T10:41:46.700Z,23.99
2022-07-29T10:44:24.648Z,24.13
2022-07-29T10:46:54.421Z,24.21
2022-07-29T10:49:27.991Z,24.28
2022-07-29T10:52:10.460Z,24.34
2022-07-29T10:54:43.746Z,24.41
2022-07-29T10:57:53.510Z,24.51
2022-07-29T11:00:31.966Z,24.62
2022-07-29T11:03:04.417Z,24.58
2022-07-29T11:05:59.896Z,24.58
2022-07-29T11:08:28.350Z,24.60
2022-07-29T11:11:22.076Z,24.66
2022-07-29T11:13:55.956Z,24.71
2022-07-29T11:16:24.926Z,24.79
2022-07-29T11:19:11.425Z,24.72
2022-07-29T11:21:53.966Z,24.65
2022-07-29T11:24:35.083Z,24.71
2022-07-29T11:27:21.870Z,24.79
2022-07-29T11:29:53.461Z,24.95
2022-07-29T11:32:23.682Z,25.15
2022-07-29T11:35:17.392Z,25.36
2022-07-29T11:38:08.221Z,25.50
2022-07-29T11:40:35.783Z,25.60
2022-07-29T11:43:07.261Z,25.67
2022-07-29T11:45:48.126Z,25.72
2022-07-29T11:48:29.197Z,25.64
2022-07-29T11:51:00.532Z,25.63
2022-07-29T11:53:29.049Z,25.70
2022-07-29T11:56:02.542Z,25.77
2022-07-29T11:58:32.442Z,25.83
2022-07-29T12:01:04.723Z,25.92
2022-07-29T12:03:36.404Z,26.09
2022-07-29T12:06:14.846Z,26.22
2022-07-29T12:08:44.361Z,26.06
2022-07-29T12:11:22.380Z,26.12
2022-07-29T12:13:52.510Z,26.23
2022-07-29T12:16:28.022Z,26.19
2022-07-29T12:19:00.216Z,26.14
2022-07-29T12:21:29.397Z,26.08
2022-07-29T12:24:04.826Z,26.06
2022-07-29T12:26:37.542Z,26.18
2022-07-29T12:29:11.317Z,26.32
2022-07-29T12:31:43.662Z,26.46
2022-07-29T12:34:16.592Z,26.55
2022-07-29T12:36:45.585Z,26.62
2022-07-29T12:39:13.482Z,26.69
2022-07-29T12:41:41.017Z,26.68
2022-07-29T12:44:08.864Z,26.75
2022-07-29T12:46:36.712Z,26.88
2022-07-29T12:49:05.452Z,27.06
2022-07-29T12:51:37.503Z,27.17
2022-07-29T12:54:11.745Z,27.22
2022-07-29T12:56:43.303Z,27.31
2022-07-29T12:59:22.975Z,27.45
2022-07-29T13:01:53.015Z,27.52
2022-07-29T13:04:33.142Z,27.59
2022-07-29T13:07:08.128Z,27.73
2022-07-29T13:09:42.702Z,27.72
2022-07-29T13:12:14.217Z,27.64
2022-07-29T13:14:48.768Z,27.61
2022-07-29T13:17:28.721Z,27.70
2022-07-29T13:20:13.389Z,27.92
2022-07-29T13:22:43.370Z,28.11
2022-07-29T13:25:10.991Z,28.31
2022-07-29T13:27:40.538Z,28.47
2022-07-29T13:30:10.402Z,28.57
2022-07-29T13:32:38.654Z,28.59
2022-07-29T13:35:09.254Z,28.64
2022-07-29T13:37:39.349Z,28.69
2022-07-29T13:40:11.366Z,28.71
2022-07-29T13:42:39.337Z,28.77
2022-07-29T13:45:11.768Z,28.79
2022-07-29T13:47:39.415Z,28.78
2022-07-29T13:50:10.800Z,28.79
2022-07-29T13:52:39.194Z,28.79
2022-07-29T13:55:07.924Z,28.85
2022-07-29T13:57:35.649Z,28.93
2022-07-29T14:00:03.675Z,28.99
2022-07-29T14:02:35.871Z,28.96
2022-07-29T14:05:08.041Z,28.94
2022-07-29T14:07:36.727Z,28.97
2022-07-29T14:10:05.142Z,29.02
2022-07-29T14:12:34.080Z,29.13
2022-07-29T14:15:01.973Z,29.24
2022-07-29T14:17:29.512Z,29.29
2022-07-29T14:19:57.045Z,29.31
2022-07-29T14:22:26.139Z,29.34
2022-07-29T14:24:55.058Z,29.31
2022-07-29T14:27:37.910Z,29.29
2022-07-29T14:30:07.793Z,29.31
2022-07-29T14:32:36.064Z,29.35
2022-07-29T14:35:04.219Z,29.41
2022-07-29T14:37:37.495Z,29.39
2022-07-29T14:40:10.454Z,29.30
2022-07-29T14:42:38.568Z,29.31
2022-07-29T14:45:08.947Z,29.29
2022-07-29T14:47:38.753Z,29.31
2022-07-29T14:50:08.166Z,29.26
2022-07-29T14:52:36.097Z,29.24
2022-07-29T14:55:05.481Z,29.21
2022-07-29T14:57:44.451Z,29.25
2022-07-29T15:00:12.597Z,29.21
2022-07-29T15:03:00.335Z,29.25
2022-07-29T15:05:28.453Z,29.26
2022-07-29T15:07:56.042Z,29.26
2022-07-29T15:10:24.851Z,29.31
2022-07-29T15:12:52.525Z,29.23
2022-07-29T15:15:20.455Z,29.28
2022-07-29T15:17:48.741Z,29.34
2022-07-29T15:20:16.692Z,29.47
2022-07-29T15:22:45.220Z,29.65
2022-07-29T15:25:13.272Z,29.73
2022-07-29T15:27:40.960Z,29.69
2022-07-29T15:30:33.517Z,29.68
2022-07-29T15:33:04.055Z,29.52
2022-07-29T15:35:31.584Z,29.50
2022-07-29T15:37:59.413Z,29.35
2022-07-29T15:40:26.902Z,29.10
2022-07-29T15:42:55.059Z,28.86
2022-07-29T15:45:22.903Z,28.64
2022-07-29T15:47:50.422Z,28.43
2022-07-29T15:50:18.726Z,28.25
2022-07-29T15:52:46.950Z,28.11
2022-07-29T15:55:15.640Z,27.92
2022-07-29T15:57:43.503Z,27.79
2022-07-29T16:00:11.957Z,27.74
2022-07-29T16:02:39.581Z,27.82
2022-07-29T16:05:09.456Z,27.93
2022-07-29T16:07:37.796Z,27.98
2022-07-29T16:10:07.802Z,27.87
2022-07-29T16:12:35.406Z,27.70
2022-07-29T16:15:09.116Z,27.60
2022-07-29T16:17:38.871Z,27.51
2022-07-29T16:20:07.374Z,27.41
2022-07-29T16:22:35.136Z,27.31
2022-07-29T16:25:04.157Z,27.21
2022-07-29T16:27:37.598Z,27.09
2022-07-29T16:30:10.309Z,27.06
2022-07-29T16:32:38.111Z,27.18
2022-07-29T16:35:07.148Z,27.26
2022-07-29T16:37:36.586Z,27.22
2022-07-29T16:40:06.353Z,27.11
2022-07-29T16:42:46.754Z,27.00
2022-07-29T16:45:18.027Z,26.86
2022-07-29T16:47:47.367Z,26.74
2022-07-29T16:50:15.002Z,26.64
2022-07-29T16:52:42.579Z,26.52
2022-07-29T16:55:10.164Z,26.39
2022-07-29T16:57:37.703Z,26.26
2022-07-29T17:00:07.115Z,26.16
2022-07-29T17:02:34.658Z,26.08
2022-07-29T17:05:02.747Z,26.04
2022-07-29T17:07:30.441Z,25.98
2022-07-29T17:10:01.952Z,25.93
2022-07-29T17:12:32.367Z,26.00
2022-07-29T17:14:59.785Z,26.16
2022-07-29T17:17:39.351Z,26.36
2022-07-29T17:20:14.919Z,26.60
2022-07-29T17:22:45.344Z,26.80
2022-07-29T17:25:20.815Z,26.98
2022-07-29T17:27:50.886Z,27.16
2022-07-29T17:30:19.052Z,27.29
2022-07-29T17:32:46.666Z,27.33
2022-07-29T17:35:32.749Z,27.38
2022-07-29T17:38:00.307Z,27.40
2022-07-29T17:40:27.833Z,27.39
2022-07-29T17:42:55.291Z,27.36
2022-07-29T17:45:22.830Z,27.36
2022-07-29T17:47:50.347Z,27.34
2022-07-29T17:50:17.954Z,27.30
2022-07-29T17:52:46.519Z,27.32
2022-07-29T17:55:14.138Z,27.33
2022-07-29T17:57:41.700Z,27.32
2022-07-29T18:00:09.805Z,27.24
2022-07-29T18:02:37.668Z,27.15
2022-07-29T18:05:05.659Z,27.09
2022-07-29T18:07:33.750Z,27.02
2022-07-29T18:10:01.332Z,26.88
2022-07-29T18:12:28.981Z,26.70
2022-07-29T18:14:56.481Z,26.52
2022-07-29T18:17:52.757Z,26.39
2022-07-29T18:20:11.981Z,26.24
2022-07-29T18:22:39.526Z,26.09
2022-07-29T18:25:07.891Z,25.98
2022-07-29T18:27:35.424Z,25.89
2022-07-29T18:30:06.475Z,25.74
2022-07-29T18:32:34.103Z,25.60
2022-07-29T18:35:02.796Z,25.47
2022-07-29T18:38:01.727Z,25.37
2022-07-29T18:40:20.970Z,25.24
2022-07-29T18:42:48.431Z,25.15
2022-07-29T18:45:19.334Z,25.05
2022-07-29T18:47:49.081Z,24.89
2022-07-29T18:50:17.170Z,24.80
2022-07-29T18:52:46.497Z,24.72
2022-07-29T18:55:13.950Z,24.65
2022-07-29T18:57:54.452Z,24.55
2022-07-29T19:00:25.234Z,24.41
2022-07-29T19:02:53.016Z,24.28
2022-07-29T19:05:21.731Z,24.13
2022-07-29T19:07:49.279Z,24.01
2022-07-29T19:10:17.110Z,23.89
2022-07-29T19:12:44.663Z,23.77
2022-07-29T19:15:12.309Z,23.67
2022-07-29T19:17:48.596Z,23.54
2022-07-29T19:20:16.375Z,23.45
2022-07-29T19:22:44.131Z,23.33
2022-07-29T19:25:11.648Z,23.21
2022-07-29T19:27:39.447Z,23.09
2022-07-29T19:30:09.426Z,23.00
2022-07-29T19:32:37.662Z,22.88
2022-07-29T19:35:24.234Z,22.80
2022-07-29T19:37:53.606Z,22.68
2022-07-29T19:40:22.190Z,22.58
2022-07-29T19:42:51.525Z,22.48
2022-07-29T19:45:24.899Z,22.39
2022-07-29T19:47:56.540Z,22.28
2022-07-29T19:50:52.032Z,22.16
2022-07-29T19:53:19.564Z,22.00
2022-07-29T19:55:47.021Z,21.92
2022-07-29T19:58:15.355Z,21.85
2022-07-29T20:00:43.091Z,21.78
2022-07-29T20:03:11.140Z,21.70
2022-07-29T20:05:38.876Z,21.62
2022-07-29T20:08:06.327Z,21.54
2022-07-29T20:10:34.047Z,21.45
2022-07-29T20:13:01.617Z,21.34
2022-07-29T20:15:29.225Z,21.26
2022-07-29T20:17:57.434Z,21.16
2022-07-29T20:20:25.977Z,21.08
2022-07-29T20:22:54.241Z,20.99
2022-07-29T20:25:23.286Z,20.93
2022-07-29T20:27:52.467Z,20.86
2022-07-29T20:30:21.730Z,20.79
2022-07-29T20:32:49.990Z,20.74
2022-07-29T20:35:17.599Z,20.66
2022-07-29T20:37:52.045Z,20.60
2022-07-29T20:40:25.884Z,20.54
2022-07-29T20:42:54.977Z,20.47
2022-07-29T20:45:23.967Z,20.40
2022-07-29T20:47:53.150Z,20.34
2022-07-29T20:50:24.082Z,20.28
2022-07-29T20:52:52.636Z,20.23
2022-07-29T20:55:20.960Z,20.19
2022-07-29T20:57:48.584Z,20.14
2022-07-29T21:00:16.298Z,20.08
2022-07-29T21:02:43.965Z,20.03
2022-07-29T21:05:11.475Z,19.97
2022-07-29T21:07:39.039Z,19.90
2022-07-29T21:10:07.082Z,19.85
2022-07-29T21:12:35.473Z,19.78
2022-07-29T21:15:06.323Z,19.73
2022-07-29T21:17:40.647Z,19.68
2022-07-29T21:20:08.897Z,19.63
2022-07-29T21:22:36.329Z,19.59
2022-07-29T21:25:04.947Z,19.55
2022-07-29T21:27:51.044Z,19.49
2022-07-29T21:30:18.608Z,19.42
2022-07-29T21:32:46.225Z,19.38
2022-07-29T21:35:35.842Z,19.34
2022-07-29T21:38:01.649Z,19.28
2022-07-29T21:40:30.356Z,19.27
2022-07-29T21:42:58.009Z,19.23
2022-07-29T21:45:25.560Z,19.21
2022-07-29T21:47:52.988Z,19.19
2022-07-29T21:50:20.606Z,19.16
2022-07-29T21:52:48.059Z,19.12
2022-07-29T21:55:15.914Z,19.08
2022-07-29T21:57:46.015Z,19.06
2022-07-29T22:00:17.390Z,19.04
2022-07-29T22:02:45.317Z,19.01
2022-07-29T22:05:14.206Z,18.96
2022-07-29T22:07:56.298Z,18.93
2022-07-29T22:10:30.519Z,18.89
2022-07-29T22:13:00.391Z,18.86
2022-07-29T22:15:29.030Z,18.84
2022-07-29T22:17:56.655Z,18.80
2022-07-29T22:20:24.920Z,18.77
2022-07-29T22:22:53.159Z,18.73
2022-07-29T22:25:21.612Z,18.69
2022-07-29T22:27:49.165Z,18.62
2022-07-29T22:30:17.347Z,18.57
2022-07-29T22:32:44.963Z,18.53
2022-07-29T22:35:12.549Z,18.45
2022-07-29T22:37:40.255Z,18.40
2022-07-29T22:40:08.427Z,18.35
2022-07-29T22:42:36.191Z,18.28
2022-07-29T22:45:10.592Z,18.23
2022-07-29T22:47:46.150Z,18.19
2022-07-29T22:50:17.169Z,18.15
2022-07-29T22:52:46.870Z,18.11
2022-07-29T22:55:15.144Z,18.07
2022-07-29T22:57:43.146Z,18.02
2022-07-29T23:00:11.903Z,17.98
2022-07-29T23:02:40.348Z,17.93
2022-07-29T23:05:08.977Z,17.87
2022-07-29T23:07:36.568Z,17.83
2022-07-29T23:10:04.698Z,17.80
2022-07-29T23:12:32.256Z,17.76
2022-07-29T23:14:59.774Z,17.72
2022-07-29T23:17:27.277Z,17.66
2022-07-29T23:19:54.879Z,17.60
2022-07-29T23:22:22.319Z,17.55
2022-07-29T23:24:49.755Z,17.50
2022-07-29T23:27:17.454Z,17.46
2022-07-29T23:29:44.942Z,17.44
2022-07-29T23:32:12.359Z,17.41
2022-07-29T23:34:39.859Z,17.37
2022-07-29T23:37:07.335Z,17.34
2022-07-29T23:39:34.895Z,17.32
2022-07-29T23:42:02.952Z,17.28
2022-07-29T23:44:30.559Z,17.24
2022-07-29T23:46:58.473Z,17.22
2022-07-29T23:49:27.014Z,17.20
2022-07-29T23:51:54.474Z,17.17
2022-07-29T23:54:21.934Z,17.17
2022-07-29T23:56:49.402Z,17.15
2022-07-29T23:59:16.883Z,17.12
